sensor_id;sensor_type;location;lat;lon;timestamp;P1;durP1;ratioP1;P2;durP2;ratioP2
66721;SDS011;53633;49.932;10.884;2024-03-08T00:00:21;25.73;;;8.73;;
66721;SDS011;53633;49.932;10.884;2024-03-08T00:02:48;24.73;;;8.90;;
66721;SDS011;53633;49.932;10.884;2024-03-08T00:05:15;21.10;;;8.05;;
66721;SDS011;53633;49.932;10.884;2024-03-08T00:07:42;21.77;;;8.43;;
66721;SDS011;53633;49.932;10.884;2024-03-08T00:10:10;24.43;;;9.23;;
66721;SDS011;53633;49.932;10.884;2024-03-08T00:12:40;21.65;;;8.73;;
66721;SDS011;53633;49.932;10.884;2024-03-08T00:15:08;24.10;;;9.60;;
66721;SDS011;53633;49.932;10.884;2024-03-08T00:17:36;24.17;;;9.00;;
66721;SDS011;53633;49.932;10.884;2024-03-08T00:20:03;22.23;;;7.95;;
66721;SDS011;53633;49.932;10.884;2024-03-08T00:22:31;24.27;;;9.63;;
66721;SDS011;53633;49.932;10.884;2024-03-08T00:24:57;22.92;;;9.05;;
66721;SDS011;53633;49.932;10.884;2024-03-08T00:27:24;23.23;;;9.23;;
66721;SDS011;53633;49.932;10.884;2024-03-08T00:29:51;20.35;;;8.13;;
66721;SDS011;53633;49.932;10.884;2024-03-08T00:32:20;24.35;;;8.40;;
66721;SDS011;53633;49.932;10.884;2024-03-08T00:34:46;32.57;;;9.67;;
66721;SDS011;53633;49.932;10.884;2024-03-08T00:37:13;23.75;;;9.48;;
66721;SDS011;53633;49.932;10.884;2024-03-08T00:39:40;25.17;;;9.55;;
66721;SDS011;53633;49.932;10.884;2024-03-08T00:42:07;24.88;;;8.30;;
66721;SDS011;53633;49.932;10.884;2024-03-08T00:44:34;23.75;;;8.95;;
66721;SDS011;53633;49.932;10.884;2024-03-08T00:47:00;25.10;;;9.13;;
66721;SDS011;53633;49.932;10.884;2024-03-08T00:49:28;22.85;;;9.13;;
66721;SDS011;53633;49.932;10.884;2024-03-08T00:51:55;26.30;;;9.43;;
66721;SDS011;53633;49.932;10.884;2024-03-08T00:54:22;27.67;;;9.50;;
66721;SDS011;53633;49.932;10.884;2024-03-08T00:56:49;23.92;;;8.85;;
66721;SDS011;53633;49.932;10.884;2024-03-08T00:59:16;25.13;;;8.70;;
66721;SDS011;53633;49.932;10.884;2024-03-08T01:01:43;26.25;;;9.52;;
66721;SDS011;53633;49.932;10.884;2024-03-08T01:04:10;23.90;;;9.52;;
66721;SDS011;53633;49.932;10.884;2024-03-08T01:06:38;24.17;;;8.75;;
66721;SDS011;53633;49.932;10.884;2024-03-08T01:09:05;27.15;;;9.15;;
66721;SDS011;53633;49.932;10.884;2024-03-08T01:11:31;26.40;;;9.73;;
66721;SDS011;53633;49.932;10.884;2024-03-08T01:13:58;25.67;;;10.27;;
66721;SDS011;53633;49.932;10.884;2024-03-08T01:16:25;25.38;;;9.25;;
66721;SDS011;53633;49.932;10.884;2024-03-08T01:18:52;26.80;;;9.38;;
66721;SDS011;53633;49.932;10.884;2024-03-08T01:21:19;28.52;;;10.07;;
66721;SDS011;53633;49.932;10.884;2024-03-08T01:23:47;25.40;;;9.73;;
66721;SDS011;53633;49.932;10.884;2024-03-08T01:26:17;25.27;;;9.48;;
66721;SDS011;53633;49.932;10.884;2024-03-08T01:28:44;24.50;;;9.52;;
66721;SDS011;53633;49.932;10.884;2024-03-08T01:31:10;25.48;;;8.73;;
66721;SDS011;53633;49.932;10.884;2024-03-08T01:33:37;22.85;;;9.23;;
66721;SDS011;53633;49.932;10.884;2024-03-08T01:36:04;24.33;;;8.37;;
66721;SDS011;53633;49.932;10.884;2024-03-08T01:38:32;25.88;;;8.73;;
66721;SDS011;53633;49.932;10.884;2024-03-08T01:41:00;23.35;;;8.90;;
66721;SDS011;53633;49.932;10.884;2024-03-08T01:43:27;22.42;;;8.82;;
66721;SDS011;53633;49.932;10.884;2024-03-08T01:45:55;23.08;;;9.35;;
66721;SDS011;53633;49.932;10.884;2024-03-08T01:48:24;28.97;;;9.53;;
66721;SDS011;53633;49.932;10.884;2024-03-08T01:50:51;23.92;;;9.48;;
66721;SDS011;53633;49.932;10.884;2024-03-08T01:53:19;24.67;;;9.40;;
66721;SDS011;53633;49.932;10.884;2024-03-08T01:55:46;28.48;;;10.13;;
66721;SDS011;53633;49.932;10.884;2024-03-08T01:58:17;28.65;;;10.55;;
66721;SDS011;53633;49.932;10.884;2024-03-08T02:00:44;23.03;;;8.57;;
66721;SDS011;53633;49.932;10.884;2024-03-08T02:03:14;23.67;;;8.93;;
66721;SDS011;53633;49.932;10.884;2024-03-08T02:05:41;24.45;;;9.93;;
66721;SDS011;53633;49.932;10.884;2024-03-08T02:08:08;26.00;;;9.75;;
66721;SDS011;53633;49.932;10.884;2024-03-08T02:10:35;31.83;;;10.23;;
66721;SDS011;53633;49.932;10.884;2024-03-08T02:13:02;26.73;;;9.50;;
66721;SDS011;53633;49.932;10.884;2024-03-08T02:18:19;26.23;;;10.32;;
66721;SDS011;53633;49.932;10.884;2024-03-08T02:20:47;24.02;;;8.93;;
66721;SDS011;53633;49.932;10.884;2024-03-08T02:23:14;26.30;;;10.23;;
66721;SDS011;53633;49.932;10.884;2024-03-08T02:25:41;24.23;;;9.30;;
66721;SDS011;53633;49.932;10.884;2024-03-08T02:28:09;24.17;;;9.52;;
66721;SDS011;53633;49.932;10.884;2024-03-08T02:30:36;25.98;;;10.63;;
66721;SDS011;53633;49.932;10.884;2024-03-08T02:33:03;26.83;;;9.82;;
66721;SDS011;53633;49.932;10.884;2024-03-08T02:35:31;23.73;;;9.10;;
66721;SDS011;53633;49.932;10.884;2024-03-08T02:37:59;25.23;;;8.77;;
66721;SDS011;53633;49.932;10.884;2024-03-08T02:40:26;27.85;;;10.88;;
66721;SDS011;53633;49.932;10.884;2024-03-08T02:42:53;25.67;;;9.73;;
66721;SDS011;53633;49.932;10.884;2024-03-08T02:45:20;25.02;;;9.75;;
66721;SDS011;53633;49.932;10.884;2024-03-08T02:47:47;26.58;;;10.25;;
66721;SDS011;53633;49.932;10.884;2024-03-08T02:50:14;27.43;;;10.07;;
66721;SDS011;53633;49.932;10.884;2024-03-08T02:52:41;23.48;;;9.85;;
66721;SDS011;53633;49.932;10.884;2024-03-08T02:55:09;26.80;;;10.65;;
66721;SDS011;53633;49.932;10.884;2024-03-08T02:57:39;26.20;;;10.38;;
66721;SDS011;53633;49.932;10.884;2024-03-08T03:00:06;28.33;;;10.25;;
66721;SDS011;53633;49.932;10.884;2024-03-08T03:02:34;28.03;;;9.83;;
66721;SDS011;53633;49.932;10.884;2024-03-08T03:05:01;25.85;;;9.90;;
66721;SDS011;53633;49.932;10.884;2024-03-08T03:07:28;22.33;;;9.13;;
66721;SDS011;53633;49.932;10.884;2024-03-08T03:09:55;24.05;;;8.93;;
66721;SDS011;53633;49.932;10.884;2024-03-08T03:12:23;23.95;;;10.65;;
66721;SDS011;53633;49.932;10.884;2024-03-08T03:14:50;26.90;;;9.50;;
66721;SDS011;53633;49.932;10.884;2024-03-08T03:17:17;30.15;;;10.57;;
66721;SDS011;53633;49.932;10.884;2024-03-08T03:19:43;29.80;;;10.88;;
66721;SDS011;53633;49.932;10.884;2024-03-08T03:22:10;29.08;;;10.57;;
66721;SDS011;53633;49.932;10.884;2024-03-08T03:24:37;27.42;;;10.63;;
66721;SDS011;53633;49.932;10.884;2024-03-08T03:27:04;27.93;;;10.70;;
66721;SDS011;53633;49.932;10.884;2024-03-08T03:29:32;25.10;;;9.90;;
66721;SDS011;53633;49.932;10.884;2024-03-08T03:31:59;25.70;;;10.27;;
66721;SDS011;53633;49.932;10.884;2024-03-08T03:34:26;24.90;;;9.07;;
66721;SDS011;53633;49.932;10.884;2024-03-08T03:36:53;28.02;;;10.75;;
66721;SDS011;53633;49.932;10.884;2024-03-08T03:39:19;25.33;;;9.83;;
66721;SDS011;53633;49.932;10.884;2024-03-08T03:41:46;25.38;;;9.27;;
66721;SDS011;53633;49.932;10.884;2024-03-08T03:44:13;26.75;;;9.77;;
66721;SDS011;53633;49.932;10.884;2024-03-08T03:46:43;26.77;;;10.05;;
66721;SDS011;53633;49.932;10.884;2024-03-08T03:49:10;24.10;;;8.82;;
66721;SDS011;53633;49.932;10.884;2024-03-08T03:51:36;25.73;;;10.27;;
66721;SDS011;53633;49.932;10.884;2024-03-08T03:54:03;25.75;;;9.48;;
66721;SDS011;53633;49.932;10.884;2024-03-08T03:56:30;27.33;;;10.13;;
66721;SDS011;53633;49.932;10.884;2024-03-08T03:58:57;28.65;;;10.25;;
66721;SDS011;53633;49.932;10.884;2024-03-08T04:01:23;29.92;;;10.30;;
66721;SDS011;53633;49.932;10.884;2024-03-08T04:03:52;26.70;;;9.23;;
66721;SDS011;53633;49.932;10.884;2024-03-08T04:06:20;26.48;;;9.80;;
66721;SDS011;53633;49.932;10.884;2024-03-08T04:08:48;27.63;;;10.10;;
66721;SDS011;53633;49.932;10.884;2024-03-08T04:11:15;27.13;;;10.45;;
66721;SDS011;53633;49.932;10.884;2024-03-08T04:13:42;27.65;;;11.02;;
66721;SDS011;53633;49.932;10.884;2024-03-08T04:16:09;30.00;;;11.00;;
66721;SDS011;53633;49.932;10.884;2024-03-08T04:18:35;28.60;;;11.13;;
66721;SDS011;53633;49.932;10.884;2024-03-08T04:21:05;30.80;;;11.90;;
66721;SDS011;53633;49.932;10.884;2024-03-08T04:23:31;28.45;;;10.90;;
66721;SDS011;53633;49.932;10.884;2024-03-08T04:25:59;30.30;;;11.63;;
66721;SDS011;53633;49.932;10.884;2024-03-08T04:28:26;30.37;;;10.67;;
66721;SDS011;53633;49.932;10.884;2024-03-08T04:30:52;24.98;;;10.45;;
66721;SDS011;53633;49.932;10.884;2024-03-08T04:33:19;35.05;;;11.75;;
66721;SDS011;53633;49.932;10.884;2024-03-08T04:35:46;30.88;;;10.30;;
66721;SDS011;53633;49.932;10.884;2024-03-08T04:38:15;25.33;;;10.52;;
66721;SDS011;53633;49.932;10.884;2024-03-08T04:40:42;27.83;;;10.07;;
66721;SDS011;53633;49.932;10.884;2024-03-08T04:43:09;31.35;;;10.32;;
66721;SDS011;53633;49.932;10.884;2024-03-08T04:45:35;30.98;;;10.80;;
66721;SDS011;53633;49.932;10.884;2024-03-08T04:48:02;26.63;;;9.98;;
66721;SDS011;53633;49.932;10.884;2024-03-08T04:50:31;28.58;;;11.38;;
66721;SDS011;53633;49.932;10.884;2024-03-08T04:52:58;28.03;;;10.40;;
66721;SDS011;53633;49.932;10.884;2024-03-08T04:55:26;28.70;;;10.63;;
66721;SDS011;53633;49.932;10.884;2024-03-08T04:57:53;26.08;;;11.50;;
66721;SDS011;53633;49.932;10.884;2024-03-08T05:00:19;25.90;;;9.55;;
66721;SDS011;53633;49.932;10.884;2024-03-08T05:02:49;26.65;;;10.32;;
66721;SDS011;53633;49.932;10.884;2024-03-08T05:05:16;31.93;;;10.07;;
66721;SDS011;53633;49.932;10.884;2024-03-08T05:07:43;31.08;;;10.20;;
66721;SDS011;53633;49.932;10.884;2024-03-08T05:10:10;33.17;;;10.70;;
66721;SDS011;53633;49.932;10.884;2024-03-08T05:12:38;33.25;;;11.13;;
66721;SDS011;53633;49.932;10.884;2024-03-08T05:15:09;30.02;;;11.57;;
66721;SDS011;53633;49.932;10.884;2024-03-08T05:17:40;27.23;;;10.10;;
66721;SDS011;53633;49.932;10.884;2024-03-08T05:20:07;27.13;;;10.63;;
66721;SDS011;53633;49.932;10.884;2024-03-08T05:22:34;29.65;;;11.10;;
66721;SDS011;53633;49.932;10.884;2024-03-08T05:25:02;25.65;;;9.95;;
66721;SDS011;53633;49.932;10.884;2024-03-08T05:27:28;29.15;;;10.57;;
66721;SDS011;53633;49.932;10.884;2024-03-08T05:29:57;27.73;;;10.47;;
66721;SDS011;53633;49.932;10.884;2024-03-08T05:32:24;29.00;;;10.73;;
66721;SDS011;53633;49.932;10.884;2024-03-08T05:34:52;28.38;;;11.10;;
66721;SDS011;53633;49.932;10.884;2024-03-08T05:37:18;30.95;;;10.63;;
66721;SDS011;53633;49.932;10.884;2024-03-08T05:39:45;27.95;;;10.70;;
66721;SDS011;53633;49.932;10.884;2024-03-08T05:42:12;27.60;;;10.43;;
66721;SDS011;53633;49.932;10.884;2024-03-08T05:44:39;25.17;;;10.18;;
66721;SDS011;53633;49.932;10.884;2024-03-08T05:47:08;24.58;;;10.48;;
66721;SDS011;53633;49.932;10.884;2024-03-08T05:49:35;32.33;;;10.00;;
66721;SDS011;53633;49.932;10.884;2024-03-08T05:52:02;30.42;;;10.77;;
66721;SDS011;53633;49.932;10.884;2024-03-08T05:54:30;27.40;;;9.77;;
66721;SDS011;53633;49.932;10.884;2024-03-08T05:56:57;32.92;;;11.40;;
66721;SDS011;53633;49.932;10.884;2024-03-08T05:59:24;26.60;;;10.18;;
66721;SDS011;53633;49.932;10.884;2024-03-08T06:01:53;27.88;;;10.38;;
66721;SDS011;53633;49.932;10.884;2024-03-08T06:04:22;27.05;;;11.35;;
66721;SDS011;53633;49.932;10.884;2024-03-08T06:06:51;29.93;;;10.13;;
66721;SDS011;53633;49.932;10.884;2024-03-08T06:09:22;26.38;;;10.73;;
66721;SDS011;53633;49.932;10.884;2024-03-08T06:11:50;29.90;;;10.88;;
66721;SDS011;53633;49.932;10.884;2024-03-08T06:14:18;32.60;;;11.00;;
66721;SDS011;53633;49.932;10.884;2024-03-08T06:16:44;30.55;;;11.10;;
66721;SDS011;53633;49.932;10.884;2024-03-08T06:19:11;32.37;;;12.27;;
66721;SDS011;53633;49.932;10.884;2024-03-08T06:21:41;31.13;;;10.60;;
66721;SDS011;53633;49.932;10.884;2024-03-08T06:24:08;35.08;;;11.93;;
66721;SDS011;53633;49.932;10.884;2024-03-08T06:26:36;33.60;;;11.40;;
66721;SDS011;53633;49.932;10.884;2024-03-08T06:29:07;29.20;;;11.23;;
66721;SDS011;53633;49.932;10.884;2024-03-08T06:31:34;29.67;;;11.00;;
66721;SDS011;53633;49.932;10.884;2024-03-08T06:34:00;34.22;;;11.52;;
66721;SDS011;53633;49.932;10.884;2024-03-08T06:36:28;34.28;;;12.65;;
66721;SDS011;53633;49.932;10.884;2024-03-08T06:39:03;30.60;;;13.18;;
66721;SDS011;53633;49.932;10.884;2024-03-08T06:41:34;29.13;;;11.43;;
66721;SDS011;53633;49.932;10.884;2024-03-08T06:44:03;31.30;;;12.30;;
66721;SDS011;53633;49.932;10.884;2024-03-08T06:46:32;33.70;;;11.32;;
66721;SDS011;53633;49.932;10.884;2024-03-08T06:48:59;32.05;;;12.77;;
66721;SDS011;53633;49.932;10.884;2024-03-08T06:51:26;30.38;;;11.23;;
66721;SDS011;53633;49.932;10.884;2024-03-08T06:53:55;31.58;;;11.82;;
66721;SDS011;53633;49.932;10.884;2024-03-08T06:56:29;28.50;;;10.30;;
66721;SDS011;53633;49.932;10.884;2024-03-08T06:58:56;31.45;;;11.85;;
66721;SDS011;53633;49.932;10.884;2024-03-08T07:01:24;29.13;;;11.50;;
66721;SDS011;53633;49.932;10.884;2024-03-08T07:03:51;31.60;;;11.93;;
66721;SDS011;53633;49.932;10.884;2024-03-08T07:06:19;30.05;;;11.75;;
66721;SDS011;53633;49.932;10.884;2024-03-08T07:08:50;27.57;;;12.13;;
66721;SDS011;53633;49.932;10.884;2024-03-08T07:11:19;28.90;;;11.52;;
66721;SDS011;53633;49.932;10.884;2024-03-08T07:13:48;29.65;;;10.52;;
66721;SDS011;53633;49.932;10.884;2024-03-08T07:16:16;27.67;;;10.80;;
66721;SDS011;53633;49.932;10.884;2024-03-08T07:18:45;28.55;;;11.50;;
66721;SDS011;53633;49.932;10.884;2024-03-08T07:21:18;27.63;;;11.40;;
66721;SDS011;53633;49.932;10.884;2024-03-08T07:23:45;27.83;;;11.13;;
66721;SDS011;53633;49.932;10.884;2024-03-08T07:26:16;26.30;;;11.65;;
66721;SDS011;53633;49.932;10.884;2024-03-08T07:28:46;23.92;;;11.20;;
66721;SDS011;53633;49.932;10.884;2024-03-08T07:31:14;25.27;;;10.50;;
66721;SDS011;53633;49.932;10.884;2024-03-08T07:33:41;29.27;;;11.23;;
66721;SDS011;53633;49.932;10.884;2024-03-08T07:36:08;26.70;;;11.07;;
66721;SDS011;53633;49.932;10.884;2024-03-08T07:38:38;26.40;;;11.23;;
66721;SDS011;53633;49.932;10.884;2024-03-08T07:41:07;24.63;;;11.55;;
66721;SDS011;53633;49.932;10.884;2024-03-08T07:43:34;24.23;;;11.32;;
66721;SDS011;53633;49.932;10.884;2024-03-08T07:46:02;32.80;;;11.97;;
66721;SDS011;53633;49.932;10.884;2024-03-08T07:48:30;28.73;;;10.98;;
66721;SDS011;53633;49.932;10.884;2024-03-08T07:51:03;25.90;;;10.98;;
66721;SDS011;53633;49.932;10.884;2024-03-08T07:53:34;25.10;;;11.02;;
66721;SDS011;53633;49.932;10.884;2024-03-08T07:56:01;27.50;;;11.48;;
66721;SDS011;53633;49.932;10.884;2024-03-08T07:58:27;25.97;;;11.03;;
66721;SDS011;53633;49.932;10.884;2024-03-08T08:00:59;24.25;;;11.77;;
66721;SDS011;53633;49.932;10.884;2024-03-08T08:03:30;23.75;;;10.57;;
66721;SDS011;53633;49.932;10.884;2024-03-08T08:05:59;25.20;;;10.75;;
66721;SDS011;53633;49.932;10.884;2024-03-08T08:08:25;25.30;;;11.55;;
66721;SDS011;53633;49.932;10.884;2024-03-08T08:10:53;25.97;;;12.23;;
66721;SDS011;53633;49.932;10.884;2024-03-08T08:13:22;26.45;;;11.90;;
66721;SDS011;53633;49.932;10.884;2024-03-08T08:15:55;25.77;;;11.90;;
66721;SDS011;53633;49.932;10.884;2024-03-08T08:18:31;26.55;;;11.60;;
66721;SDS011;53633;49.932;10.884;2024-03-08T08:21:06;27.38;;;11.75;;
66721;SDS011;53633;49.932;10.884;2024-03-08T08:23:33;25.23;;;11.97;;
66721;SDS011;53633;49.932;10.884;2024-03-08T08:26:03;26.17;;;11.18;;
66721;SDS011;53633;49.932;10.884;2024-03-08T08:28:32;29.02;;;12.43;;
66721;SDS011;53633;49.932;10.884;2024-03-08T08:30:59;27.02;;;12.10;;
66721;SDS011;53633;49.932;10.884;2024-03-08T08:33:25;25.23;;;11.52;;
66721;SDS011;53633;49.932;10.884;2024-03-08T08:35:54;26.50;;;11.47;;
66721;SDS011;53633;49.932;10.884;2024-03-08T08:38:21;27.20;;;12.65;;
66721;SDS011;53633;49.932;10.884;2024-03-08T08:40:48;25.27;;;12.25;;
66721;SDS011;53633;49.932;10.884;2024-03-08T08:43:17;27.10;;;12.23;;
66721;SDS011;53633;49.932;10.884;2024-03-08T08:45:44;24.77;;;11.20;;
66721;SDS011;53633;49.932;10.884;2024-03-08T08:48:11;27.10;;;11.63;;
66721;SDS011;53633;49.932;10.884;2024-03-08T08:50:53;24.58;;;11.88;;
66721;SDS011;53633;49.932;10.884;2024-03-08T08:53:20;25.92;;;11.82;;
66721;SDS011;53633;49.932;10.884;2024-03-08T08:55:50;28.02;;;11.68;;
66721;SDS011;53633;49.932;10.884;2024-03-08T08:58:17;27.45;;;11.98;;
66721;SDS011;53633;49.932;10.884;2024-03-08T09:00:44;29.17;;;11.07;;
66721;SDS011;53633;49.932;10.884;2024-03-08T09:03:11;26.60;;;11.40;;
66721;SDS011;53633;49.932;10.884;2024-03-08T09:05:37;25.45;;;10.43;;
66721;SDS011;53633;49.932;10.884;2024-03-08T09:08:11;26.45;;;11.10;;
66721;SDS011;53633;49.932;10.884;2024-03-08T09:10:38;25.55;;;11.10;;
66721;SDS011;53633;49.932;10.884;2024-03-08T09:13:06;28.93;;;11.43;;
66721;SDS011;53633;49.932;10.884;2024-03-08T09:15:36;23.17;;;9.98;;
66721;SDS011;53633;49.932;10.884;2024-03-08T09:18:05;24.27;;;11.00;;
66721;SDS011;53633;49.932;10.884;2024-03-08T09:20:38;21.98;;;10.00;;
66721;SDS011;53633;49.932;10.884;2024-03-08T09:23:05;25.15;;;10.45;;
66721;SDS011;53633;49.932;10.884;2024-03-08T09:25:35;26.57;;;10.47;;
66721;SDS011;53633;49.932;10.884;2024-03-08T09:28:03;25.10;;;10.65;;
66721;SDS011;53633;49.932;10.884;2024-03-08T09:30:34;26.83;;;10.23;;
66721;SDS011;53633;49.932;10.884;2024-03-08T09:33:01;23.75;;;10.05;;
66721;SDS011;53633;49.932;10.884;2024-03-08T09:35:28;23.80;;;9.60;;
66721;SDS011;53633;49.932;10.884;2024-03-08T09:37:56;28.23;;;10.50;;
66721;SDS011;53633;49.932;10.884;2024-03-08T09:40:23;23.30;;;10.20;;
66721;SDS011;53633;49.932;10.884;2024-03-08T09:42:56;23.10;;;9.80;;
66721;SDS011;53633;49.932;10.884;2024-03-08T09:45:26;24.70;;;9.77;;
66721;SDS011;53633;49.932;10.884;2024-03-08T09:47:54;28.02;;;10.45;;
66721;SDS011;53633;49.932;10.884;2024-03-08T09:50:27;25.17;;;10.60;;
66721;SDS011;53633;49.932;10.884;2024-03-08T09:53:11;27.05;;;11.10;;
66721;SDS011;53633;49.932;10.884;2024-03-08T09:55:41;26.02;;;10.02;;
66721;SDS011;53633;49.932;10.884;2024-03-08T09:58:18;27.77;;;10.98;;
66721;SDS011;53633;49.932;10.884;2024-03-08T10:00:46;22.88;;;9.68;;
66721;SDS011;53633;49.932;10.884;2024-03-08T10:03:13;24.37;;;10.23;;
66721;SDS011;53633;49.932;10.884;2024-03-08T10:05:51;28.45;;;11.32;;
66721;SDS011;53633;49.932;10.884;2024-03-08T10:08:18;28.10;;;11.18;;
66721;SDS011;53633;49.932;10.884;2024-03-08T10:10:50;22.17;;;10.13;;
66721;SDS011;53633;49.932;10.884;2024-03-08T10:13:22;24.08;;;10.63;;
66721;SDS011;53633;49.932;10.884;2024-03-08T10:15:50;24.13;;;10.27;;
66721;SDS011;53633;49.932;10.884;2024-03-08T10:18:17;21.67;;;10.10;;
66721;SDS011;53633;49.932;10.884;2024-03-08T10:21:01;24.17;;;10.93;;
66721;SDS011;53633;49.932;10.884;2024-03-08T10:23:29;25.30;;;10.23;;
66721;SDS011;53633;49.932;10.884;2024-03-08T10:25:57;21.95;;;9.65;;
66721;SDS011;53633;49.932;10.884;2024-03-08T10:28:27;26.90;;;9.53;;
66721;SDS011;53633;49.932;10.884;2024-03-08T10:30:58;23.48;;;8.57;;
66721;SDS011;53633;49.932;10.884;2024-03-08T10:33:28;22.67;;;9.35;;
66721;SDS011;53633;49.932;10.884;2024-03-08T10:35:55;22.65;;;10.43;;
66721;SDS011;53633;49.932;10.884;2024-03-08T10:38:22;25.25;;;10.02;;
66721;SDS011;53633;49.932;10.884;2024-03-08T10:40:50;24.80;;;10.37;;
66721;SDS011;53633;49.932;10.884;2024-03-08T10:43:18;25.88;;;9.75;;
66721;SDS011;53633;49.932;10.884;2024-03-08T10:45:55;21.40;;;8.75;;
66721;SDS011;53633;49.932;10.884;2024-03-08T10:48:39;20.83;;;8.52;;
66721;SDS011;53633;49.932;10.884;2024-03-08T10:51:11;23.13;;;8.95;;
66721;SDS011;53633;49.932;10.884;2024-03-08T10:53:38;19.73;;;8.07;;
66721;SDS011;53633;49.932;10.884;2024-03-08T10:56:06;19.85;;;7.88;;
66721;SDS011;53633;49.932;10.884;2024-03-08T10:58:34;19.77;;;8.23;;
66721;SDS011;53633;49.932;10.884;2024-03-08T11:01:04;21.73;;;8.27;;
66721;SDS011;53633;49.932;10.884;2024-03-08T11:03:44;21.50;;;8.55;;
66721;SDS011;53633;49.932;10.884;2024-03-08T11:06:16;18.00;;;7.47;;
66721;SDS011;53633;49.932;10.884;2024-03-08T11:08:45;20.17;;;7.97;;
66721;SDS011;53633;49.932;10.884;2024-03-08T11:11:25;18.52;;;8.05;;
66721;SDS011;53633;49.932;10.884;2024-03-08T11:14:01;19.38;;;8.32;;
66721;SDS011;53633;49.932;10.884;2024-03-08T11:16:43;21.67;;;9.20;;
66721;SDS011;53633;49.932;10.884;2024-03-08T11:19:23;21.00;;;8.27;;
66721;SDS011;53633;49.932;10.884;2024-03-08T11:22:00;17.50;;;8.18;;
66721;SDS011;53633;49.932;10.884;2024-03-08T11:24:36;18.15;;;7.22;;
66721;SDS011;53633;49.932;10.884;2024-03-08T11:27:04;18.35;;;7.63;;
66721;SDS011;53633;49.932;10.884;2024-03-08T11:29:34;23.08;;;7.55;;
66721;SDS011;53633;49.932;10.884;2024-03-08T11:32:08;20.97;;;8.80;;
66721;SDS011;53633;49.932;10.884;2024-03-08T11:34:36;20.50;;;8.13;;
66721;SDS011;53633;49.932;10.884;2024-03-08T11:37:04;21.85;;;8.95;;
66721;SDS011;53633;49.932;10.884;2024-03-08T11:39:37;20.70;;;8.70;;
66721;SDS011;53633;49.932;10.884;2024-03-08T11:42:05;23.55;;;8.98;;
66721;SDS011;53633;49.932;10.884;2024-03-08T11:44:32;20.93;;;8.10;;
66721;SDS011;53633;49.932;10.884;2024-03-08T11:46:59;22.63;;;7.80;;
66721;SDS011;53633;49.932;10.884;2024-03-08T11:49:27;21.23;;;8.50;;
66721;SDS011;53633;49.932;10.884;2024-03-08T11:51:54;23.83;;;8.63;;
66721;SDS011;53633;49.932;10.884;2024-03-08T11:54:21;21.05;;;8.75;;
66721;SDS011;53633;49.932;10.884;2024-03-08T11:56:51;23.80;;;8.37;;
66721;SDS011;53633;49.932;10.884;2024-03-08T11:59:18;20.90;;;8.45;;
66721;SDS011;53633;49.932;10.884;2024-03-08T12:01:56;19.38;;;8.65;;
66721;SDS011;53633;49.932;10.884;2024-03-08T12:04:25;20.50;;;8.02;;
66721;SDS011;53633;49.932;10.884;2024-03-08T12:06:54;22.58;;;8.98;;
66721;SDS011;53633;49.932;10.884;2024-03-08T12:09:21;19.63;;;8.20;;
66721;SDS011;53633;49.932;10.884;2024-03-08T12:11:48;22.25;;;8.73;;
66721;SDS011;53633;49.932;10.884;2024-03-08T12:14:18;22.15;;;8.65;;
66721;SDS011;53633;49.932;10.884;2024-03-08T12:16:45;20.85;;;8.48;;
66721;SDS011;53633;49.932;10.884;2024-03-08T12:19:22;22.75;;;8.68;;
66721;SDS011;53633;49.932;10.884;2024-03-08T12:21:50;20.63;;;7.17;;
66721;SDS011;53633;49.932;10.884;2024-03-08T12:24:19;20.55;;;8.05;;
66721;SDS011;53633;49.932;10.884;2024-03-08T12:26:52;18.33;;;7.78;;
66721;SDS011;53633;49.932;10.884;2024-03-08T12:29:21;20.45;;;8.15;;
66721;SDS011;53633;49.932;10.884;2024-03-08T12:31:51;20.70;;;7.57;;
66721;SDS011;53633;49.932;10.884;2024-03-08T12:34:20;18.87;;;7.47;;
66721;SDS011;53633;49.932;10.884;2024-03-08T12:36:49;19.42;;;7.82;;
66721;SDS011;53633;49.932;10.884;2024-03-08T12:39:20;20.83;;;8.73;;
66721;SDS011;53633;49.932;10.884;2024-03-08T12:41:56;18.63;;;7.43;;
66721;SDS011;53633;49.932;10.884;2024-03-08T12:44:24;22.38;;;8.18;;
66721;SDS011;53633;49.932;10.884;2024-03-08T12:46:51;18.53;;;6.57;;
66721;SDS011;53633;49.932;10.884;2024-03-08T12:49:19;16.85;;;7.30;;
66721;SDS011;53633;49.932;10.884;2024-03-08T12:51:46;16.67;;;6.43;;
66721;SDS011;53633;49.932;10.884;2024-03-08T12:54:13;19.60;;;8.32;;
66721;SDS011;53633;49.932;10.884;2024-03-08T12:56:45;15.88;;;6.63;;
66721;SDS011;53633;49.932;10.884;2024-03-08T12:59:12;19.33;;;8.30;;
66721;SDS011;53633;49.932;10.884;2024-03-08T13:01:39;17.73;;;7.50;;
66721;SDS011;53633;49.932;10.884;2024-03-08T13:04:06;20.08;;;8.32;;
66721;SDS011;53633;49.932;10.884;2024-03-08T13:06:34;17.60;;;7.15;;
66721;SDS011;53633;49.932;10.884;2024-03-08T13:09:01;17.95;;;7.05;;
66721;SDS011;53633;49.932;10.884;2024-03-08T13:11:33;18.70;;;6.60;;
66721;SDS011;53633;49.932;10.884;2024-03-08T13:14:02;18.05;;;6.55;;
66721;SDS011;53633;49.932;10.884;2024-03-08T13:16:29;16.00;;;6.22;;
66721;SDS011;53633;49.932;10.884;2024-03-08T13:18:56;16.63;;;6.80;;
66721;SDS011;53633;49.932;10.884;2024-03-08T13:21:23;16.50;;;6.40;;
66721;SDS011;53633;49.932;10.884;2024-03-08T13:23:50;15.90;;;6.00;;
66721;SDS011;53633;49.932;10.884;2024-03-08T13:26:21;14.65;;;5.97;;
66721;SDS011;53633;49.932;10.884;2024-03-08T13:28:48;16.15;;;6.78;;
66721;SDS011;53633;49.932;10.884;2024-03-08T13:31:17;15.25;;;6.22;;
66721;SDS011;53633;49.932;10.884;2024-03-08T13:33:45;15.95;;;6.05;;
66721;SDS011;53633;49.932;10.884;2024-03-08T13:36:12;15.90;;;6.47;;
66721;SDS011;53633;49.932;10.884;2024-03-08T13:38:39;15.48;;;5.95;;
66721;SDS011;53633;49.932;10.884;2024-03-08T13:41:09;13.82;;;6.25;;
66721;SDS011;53633;49.932;10.884;2024-03-08T13:43:39;16.15;;;6.65;;
66721;SDS011;53633;49.932;10.884;2024-03-08T13:46:07;15.30;;;6.13;;
66721;SDS011;53633;49.932;10.884;2024-03-08T13:48:38;14.67;;;5.57;;
66721;SDS011;53633;49.932;10.884;2024-03-08T13:51:08;14.32;;;5.82;;
66721;SDS011;53633;49.932;10.884;2024-03-08T13:53:35;14.40;;;5.68;;
66721;SDS011;53633;49.932;10.884;2024-03-08T13:56:03;14.68;;;5.90;;
66721;SDS011;53633;49.932;10.884;2024-03-08T13:58:49;14.52;;;5.60;;
66721;SDS011;53633;49.932;10.884;2024-03-08T14:01:18;13.57;;;4.80;;
66721;SDS011;53633;49.932;10.884;2024-03-08T14:03:51;12.45;;;4.93;;
66721;SDS011;53633;49.932;10.884;2024-03-08T14:06:18;14.85;;;5.15;;
66721;SDS011;53633;49.932;10.884;2024-03-08T14:08:49;12.25;;;4.97;;
66721;SDS011;53633;49.932;10.884;2024-03-08T14:11:16;14.43;;;5.45;;
66721;SDS011;53633;49.932;10.884;2024-03-08T14:13:47;15.10;;;6.30;;
66721;SDS011;53633;49.932;10.884;2024-03-08T14:16:20;14.20;;;6.07;;
66721;SDS011;53633;49.932;10.884;2024-03-08T14:18:52;18.95;;;6.20;;
66721;SDS011;53633;49.932;10.884;2024-03-08T14:21:19;14.55;;;5.88;;
66721;SDS011;53633;49.932;10.884;2024-03-08T14:23:51;19.58;;;5.90;;
66721;SDS011;53633;49.932;10.884;2024-03-08T14:26:19;13.37;;;5.47;;